createdAt,value
2023-02-17T00:00:58.684Z,5.30
2023-02-17T00:03:26.602Z,4.90
2023-02-17T00:05:54.469Z,5.67
2023-02-17T00:08:22.324Z,5.00
2023-02-17T00:10:57.858Z,6.00
2023-02-17T00:13:25.763Z,5.63
2023-02-17T00:15:53.832Z,5.60
2023-02-17T00:18:23.296Z,6.00
2023-02-17T00:20:51.209Z,5.67
2023-02-17T00:23:19.187Z,5.10
2023-02-17T00:25:47.040Z,5.00
2023-02-17T00:28:14.838Z,5.53
2023-02-17T00:30:42.647Z,5.60
2023-02-17T00:33:10.428Z,4.70
2023-02-17T00:35:42.531Z,5.00
2023-02-17T00:38:10.338Z,5.10
2023-02-17T00:40:38.913Z,6.20
2023-02-17T00:43:07.044Z,5.77
2023-02-17T00:45:34.897Z,5.30
2023-02-17T00:48:02.778Z,5.73
2023-02-17T00:50:30.662Z,4.77
2023-02-17T00:52:59.793Z,5.27
2023-02-17T00:55:27.673Z,5.07
2023-02-17T00:57:55.449Z,4.80
2023-02-17T01:00:23.615Z,5.00
2023-02-17T01:02:51.590Z,4.47
2023-02-17T01:05:19.547Z,4.47
2023-02-17T01:07:47.416Z,4.57
2023-02-17T01:10:16.811Z,4.33
2023-02-17T01:12:44.581Z,5.13
2023-02-17T01:15:12.958Z,4.53
2023-02-17T01:17:40.800Z,4.70
2023-02-17T01:20:09.369Z,5.30
2023-02-17T01:22:39.220Z,4.90
2023-02-17T01:25:07.589Z,4.67
2023-02-17T01:27:37.272Z,5.00
2023-02-17T01:30:06.224Z,5.67
2023-02-17T01:32:34.051Z,4.60
2023-02-17T01:35:01.870Z,5.90
2023-02-17T01:37:29.656Z,5.20
2023-02-17T01:39:57.426Z,4.87
2023-02-17T01:42:25.237Z,5.17
2023-02-17T01:45:30.534Z,4.33
2023-02-17T01:48:02.862Z,4.03
2023-02-17T01:50:35.226Z,5.70
2023-02-17T01:53:05.295Z,4.63
2023-02-17T01:55:34.895Z,6.43
2023-02-17T01:58:05.418Z,5.57
2023-02-17T02:00:34.831Z,4.83
2023-02-17T02:03:08.013Z,4.60
2023-02-17T02:05:37.627Z,4.80
2023-02-17T02:08:06.338Z,5.17
2023-02-17T02:10:34.156Z,4.80
2023-02-17T02:13:02.062Z,4.97
2023-02-17T02:15:36.235Z,4.90
2023-02-17T02:18:21.860Z,4.87
2023-02-17T02:21:20.324Z,4.50
2023-02-17T02:24:05.095Z,4.57
2023-02-17T02:27:10.890Z,4.87
2023-02-17T02:30:03.747Z,6.27
2023-02-17T02:32:51.874Z,4.80
2023-02-17T02:35:23.872Z,4.67
2023-02-17T02:37:56.523Z,4.40
2023-02-17T02:40:29.707Z,4.33
2023-02-17T02:42:58.069Z,4.33
2023-02-17T02:45:25.907Z,4.57
2023-02-17T02:47:56.247Z,4.10
2023-02-17T02:50:29.785Z,4.70
2023-02-17T02:53:12.190Z,4.33
2023-02-17T02:55:50.512Z,4.63
2023-02-17T02:58:22.466Z,5.00
2023-02-17T03:00:58.131Z,5.17
2023-02-17T03:03:33.031Z,5.10
2023-02-17T03:06:07.513Z,4.90
2023-02-17T03:08:39.212Z,4.30
2023-02-17T03:11:07.686Z,4.37
2023-02-17T03:13:42.852Z,4.07
2023-02-17T03:16:12.129Z,3.90
2023-02-17T03:18:41.291Z,4.10
2023-02-17T03:21:17.262Z,4.10
2023-02-17T03:23:45.098Z,3.80
2023-02-17T03:26:12.917Z,3.67
2023-02-17T03:28:40.739Z,3.60
2023-02-17T03:31:08.562Z,4.17
2023-02-17T03:33:36.380Z,2.50
2023-02-17T03:36:06.514Z,3.10
2023-02-17T03:38:34.516Z,3.03
2023-02-17T03:41:02.330Z,2.93
2023-02-17T03:43:30.122Z,4.80
2023-02-17T03:45:58.024Z,4.43
2023-02-17T03:48:25.858Z,3.83
2023-02-17T03:50:53.672Z,4.50
2023-02-17T03:53:22.810Z,6.10
2023-02-17T03:55:50.595Z,4.30
2023-02-17T03:58:18.386Z,4.90
2023-02-17T04:00:46.206Z,4.50
2023-02-17T04:03:14.032Z,5.00
2023-02-17T04:05:41.838Z,4.50
2023-02-17T04:08:09.647Z,4.53
2023-02-17T04:10:38.774Z,4.47
2023-02-17T04:13:06.585Z,5.23
2023-02-17T04:15:34.534Z,5.80
2023-02-17T04:18:02.364Z,5.50
2023-02-17T04:20:30.232Z,4.50
2023-02-17T04:22:58.048Z,5.20
2023-02-17T04:25:26.009Z,7.73
2023-02-17T04:27:55.160Z,5.77
2023-02-17T04:30:23.142Z,6.30
2023-02-17T04:32:50.938Z,6.80
2023-02-17T04:35:18.914Z,6.20
2023-02-17T04:37:46.736Z,5.10
2023-02-17T04:40:15.224Z,6.00
2023-02-17T04:42:43.060Z,5.63
2023-02-17T04:45:13.588Z,5.60
2023-02-17T04:47:41.398Z,5.53
2023-02-17T04:50:10.779Z,5.97
2023-02-17T04:52:39.029Z,5.63
2023-02-17T04:55:08.013Z,5.40
2023-02-17T04:57:35.950Z,6.53
2023-02-17T05:00:04.064Z,4.60
2023-02-17T05:02:33.211Z,5.27
2023-02-17T05:05:01.059Z,5.37
2023-02-17T05:07:28.860Z,5.53
2023-02-17T05:09:57.421Z,5.70
2023-02-17T05:12:25.334Z,6.47
2023-02-17T05:14:53.183Z,6.23
2023-02-17T05:17:21.105Z,5.40
2023-02-17T05:19:50.264Z,5.80
2023-02-17T05:22:18.065Z,6.30
2023-02-17T05:24:45.948Z,5.20
2023-02-17T05:27:13.801Z,5.73
2023-02-17T05:29:41.710Z,5.40
2023-02-17T05:32:09.588Z,5.80
2023-02-17T05:34:37.473Z,5.90
2023-02-17T05:37:06.634Z,6.17
2023-02-17T05:39:34.491Z,6.30
2023-02-17T05:42:02.318Z,6.47
2023-02-17T05:44:30.364Z,5.40
2023-02-17T05:46:58.207Z,6.67
2023-02-17T05:49:26.138Z,5.60
2023-02-17T05:51:54.001Z,6.20
2023-02-17T05:54:23.145Z,6.73
2023-02-17T05:56:50.938Z,8.37
2023-02-17T05:59:18.720Z,6.50
2023-02-17T06:01:46.620Z,6.63
2023-02-17T06:04:16.970Z,6.20
2023-02-17T06:06:44.996Z,6.70
2023-02-17T06:09:12.799Z,6.93
2023-02-17T06:11:42.130Z,7.03
2023-02-17T06:14:09.971Z,6.80
2023-02-17T06:16:37.890Z,7.20
2023-02-17T06:19:08.483Z,7.07
2023-02-17T06:21:36.297Z,6.43
2023-02-17T06:24:04.356Z,7.30
2023-02-17T06:26:32.207Z,7.07
2023-02-17T06:29:01.391Z,6.60
2023-02-17T06:31:30.023Z,5.80
2023-02-17T06:33:57.917Z,6.10
2023-02-17T06:36:25.696Z,5.13
2023-02-17T06:38:53.517Z,5.30
2023-02-17T06:41:21.328Z,5.60
2023-02-17T06:43:49.065Z,5.90
2023-02-17T06:46:18.186Z,5.13
2023-02-17T06:48:45.928Z,5.60
2023-02-17T06:51:13.781Z,6.23
2023-02-17T06:53:41.578Z,6.13
2023-02-17T06:56:09.407Z,5.47
2023-02-17T06:58:37.905Z,5.87
2023-02-17T07:01:08.107Z,5.90
2023-02-17T07:03:37.244Z,5.20
2023-02-17T07:06:05.793Z,4.87
2023-02-17T07:08:34.169Z,5.00
2023-02-17T07:11:06.524Z,4.90
2023-02-17T07:13:34.686Z,4.47
2023-02-17T07:16:02.611Z,5.13
2023-02-17T07:18:30.472Z,4.37
2023-02-17T07:20:59.580Z,4.63
2023-02-17T07:23:27.570Z,5.10
2023-02-17T07:25:55.371Z,5.10
2023-02-17T07:28:23.173Z,4.80
2023-02-17T07:30:51.082Z,5.03
2023-02-17T07:33:18.852Z,5.40
2023-02-17T07:35:46.624Z,5.57
2023-02-17T07:38:15.768Z,5.77
2023-02-17T07:40:43.624Z,6.13
2023-02-17T07:43:11.388Z,6.20
2023-02-17T07:45:39.354Z,6.00
2023-02-17T07:48:07.171Z,5.80
2023-02-17T07:50:35.168Z,5.83
2023-02-17T07:53:03.310Z,5.63
2023-02-17T07:55:32.774Z,5.13
2023-02-17T07:58:00.845Z,5.77
2023-02-17T08:00:28.666Z,5.70
2023-02-17T08:02:56.460Z,5.63
2023-02-17T08:05:24.284Z,5.93
2023-02-17T08:08:12.741Z,5.40
2023-02-17T08:10:59.887Z,5.37
2023-02-17T08:13:29.107Z,5.80
2023-02-17T08:15:56.904Z,5.20
2023-02-17T08:18:24.700Z,5.73
2023-02-17T08:20:52.980Z,6.10
2023-02-17T08:23:21.315Z,6.60
2023-02-17T08:25:50.456Z,5.83
2023-02-17T08:28:18.265Z,6.10
2023-02-17T08:30:46.142Z,5.87
2023-02-17T08:33:17.851Z,5.57
2023-02-17T08:35:46.126Z,5.20
2023-02-17T08:38:13.983Z,4.93
2023-02-17T08:40:41.762Z,4.87
2023-02-17T08:43:11.325Z,4.33
2023-02-17T08:45:39.586Z,4.40
2023-02-17T08:48:07.681Z,5.23
2023-02-17T08:50:35.551Z,5.00
2023-02-17T08:53:03.343Z,6.00
2023-02-17T08:55:43.986Z,5.47
2023-02-17T08:58:17.612Z,5.77
2023-02-17T09:00:45.463Z,4.90
2023-02-17T09:03:13.608Z,5.20
2023-02-17T09:05:41.448Z,6.67
2023-02-17T09:08:10.920Z,5.13
2023-02-17T09:10:39.111Z,6.57
2023-02-17T09:13:06.882Z,6.17
2023-02-17T09:15:36.096Z,4.90
2023-02-17T09:18:04.038Z,6.57
2023-02-17T09:20:31.969Z,6.03
2023-02-17T09:22:59.770Z,5.87
2023-02-17T09:25:27.529Z,5.90
2023-02-17T09:27:55.362Z,5.33
2023-02-17T09:30:23.279Z,5.90
2023-02-17T09:32:52.403Z,5.53
2023-02-17T09:35:20.663Z,5.20
2023-02-17T09:37:48.538Z,4.70
2023-02-17T09:40:21.935Z,4.70
2023-02-17T09:42:50.343Z,4.90
2023-02-17T09:45:23.002Z,5.23
2023-02-17T09:47:56.095Z,4.27
2023-02-17T09:50:28.832Z,4.87
2023-02-17T09:53:02.179Z,4.50
2023-02-17T09:55:34.104Z,4.00
2023-02-17T09:58:07.160Z,4.40
2023-02-17T10:00:39.339Z,4.80
2023-02-17T10:03:18.108Z,4.43
2023-02-17T10:05:49.726Z,4.03
2023-02-17T10:08:19.951Z,4.23
2023-02-17T10:10:55.046Z,3.80
2023-02-17T10:13:26.012Z,3.83
2023-02-17T10:15:56.051Z,4.50
2023-02-17T10:18:31.680Z,4.20
2023-02-17T10:21:02.748Z,3.70
2023-02-17T10:23:30.814Z,3.73
2023-02-17T10:26:10.021Z,3.70
2023-02-17T10:28:51.744Z,3.60
2023-02-17T10:31:29.530Z,3.60
2023-02-17T10:34:04.179Z,3.47
2023-02-17T10:36:40.795Z,3.63
2023-02-17T10:39:14.946Z,3.60
2023-02-17T10:41:45.071Z,3.73
2023-02-17T10:44:17.135Z,3.30
2023-02-17T10:46:45.804Z,3.60
2023-02-17T10:49:24.772Z,3.30
2023-02-17T10:51:52.541Z,4.00
2023-02-17T10:54:30.185Z,3.17
2023-02-17T10:57:02.252Z,3.73
2023-02-17T10:59:33.406Z,3.87
2023-02-17T11:02:15.290Z,3.53
2023-02-17T11:04:45.063Z,3.60
2023-02-17T11:07:15.658Z,3.47
2023-02-17T11:09:48.703Z,3.67
2023-02-17T11:12:21.663Z,4.00
2023-02-17T11:14:52.544Z,3.10
2023-02-17T11:17:27.042Z,3.40
2023-02-17T11:19:59.411Z,3.40
2023-02-17T11:22:32.797Z,3.50
2023-02-17T11:25:03.482Z,3.50
2023-02-17T11:27:31.369Z,3.67
2023-02-17T11:30:08.476Z,3.50
2023-02-17T11:32:36.720Z,3.30
2023-02-17T11:35:06.251Z,3.40
2023-02-17T11:37:38.650Z,3.60
2023-02-17T11:40:26.335Z,3.30
2023-02-17T11:42:58.797Z,3.83
2023-02-17T11:45:29.870Z,3.53
2023-02-17T11:48:12.608Z,3.20
2023-02-17T11:50:48.592Z,3.40
2023-02-17T11:53:25.617Z,3.50
2023-02-17T11:56:03.227Z,3.80
2023-02-17T11:58:45.810Z,3.70
2023-02-17T12:01:27.397Z,3.60
2023-02-17T12:04:23.817Z,3.30
2023-02-17T12:07:04.262Z,2.70
2023-02-17T12:09:38.075Z,4.17
2023-02-17T12:12:17.539Z,8.73
2023-02-17T12:15:02.668Z,3.03
2023-02-17T12:17:42.512Z,2.70
2023-02-17T12:20:31.603Z,3.20
2023-02-17T12:23:11.478Z,4.17
2023-02-17T12:25:42.555Z,3.33
2023-02-17T12:28:33.772Z,3.03
2023-02-17T12:31:05.932Z,3.30
2023-02-17T12:33:51.467Z,3.40
2023-02-17T12:36:20.777Z,3.97
2023-02-17T12:38:55.010Z,3.17
2023-02-17T12:41:27.084Z,3.50
2023-02-17T12:43:58.824Z,4.17
2023-02-17T12:46:31.595Z,4.47
2023-02-17T12:49:05.924Z,3.93
2023-02-17T12:51:38.992Z,4.20
2023-02-17T12:54:18.094Z,3.77
2023-02-17T12:57:00.716Z,3.47
2023-02-17T12:59:34.479Z,4.57
2023-02-17T13:02:04.466Z,4.10
2023-02-17T13:04:34.401Z,4.43
2023-02-17T13:07:29.063Z,3.60
2023-02-17T13:09:58.664Z,3.90
2023-02-17T13:12:41.680Z,5.17
2023-02-17T13:15:29.944Z,4.27
2023-02-17T13:18:03.064Z,3.97
2023-02-17T13:20:45.711Z,3.97
2023-02-17T13:23:16.000Z,3.63
2023-02-17T13:25:45.148Z,4.57
2023-02-17T13:28:35.092Z,4.30
2023-02-17T13:31:18.394Z,4.40
2023-02-17T13:33:51.937Z,3.93
2023-02-17T13:36:23.378Z,5.90
2023-02-17T13:39:01.355Z,4.13
2023-02-17T13:41:35.651Z,5.30
2023-02-17T13:44:27.119Z,4.20
2023-02-17T13:46:58.446Z,4.50
2023-02-17T13:49:28.717Z,3.53
2023-02-17T13:52:07.383Z,3.70
2023-02-17T13:54:35.187Z,3.60
2023-02-17T13:57:04.655Z,4.63
2023-02-17T13:59:32.471Z,4.87
2023-02-17T14:02:00.313Z,3.70
2023-02-17T14:04:31.352Z,4.30
2023-02-17T14:07:01.018Z,4.23
2023-02-17T14:09:30.742Z,4.70
2023-02-17T14:11:59.856Z,3.90
2023-02-17T14:14:32.368Z,3.67
2023-02-17T14:17:04.211Z,4.50
2023-02-17T14:19:43.457Z,4.23
2023-02-17T14:22:26.343Z,4.20
2023-02-17T14:25:06.103Z,4.13
2023-02-17T14:27:43.618Z,3.43
2023-02-17T14:30:16.795Z,5.37
2023-02-17T14:32:44.890Z,2.80
2023-02-17T14:35:24.415Z,6.70
2023-02-17T14:37:52.319Z,4.27
2023-02-17T14:40:23.150Z,5.00
2023-02-17T14:42:51.374Z,4.20
2023-02-17T14:45:20.710Z,4.20
2023-02-17T14:47:48.787Z,4.00
2023-02-17T14:50:17.392Z,3.23
2023-02-17T14:52:47.708Z,3.43
2023-02-17T14:55:23.880Z,3.80
2023-02-17T14:57:51.684Z,4.30
2023-02-17T15:00:21.337Z,3.20
2023-02-17T15:02:51.247Z,5.33
2023-02-17T15:05:19.109Z,3.63
2023-02-17T15:07:47.663Z,3.90
2023-02-17T15:10:20.640Z,3.30
2023-02-17T15:12:48.579Z,3.60
2023-02-17T15:15:18.040Z,3.40
2023-02-17T15:17:47.257Z,3.87
2023-02-17T15:20:16.740Z,3.50
2023-02-17T15:22:44.799Z,4.03
2023-02-17T15:25:17.069Z,3.20
2023-02-17T15:27:46.072Z,3.53
2023-02-17T15:30:15.835Z,3.27
2023-02-17T15:32:44.156Z,3.77
2023-02-17T15:35:17.772Z,3.20
2023-02-17T15:37:45.700Z,3.37
2023-02-17T15:40:18.292Z,3.50
2023-02-17T15:42:47.510Z,3.47
2023-02-17T15:45:18.862Z,3.57
2023-02-17T15:47:46.887Z,3.67
2023-02-17T15:50:20.624Z,3.13
2023-02-17T15:52:48.706Z,3.60
2023-02-17T15:55:17.366Z,3.47
2023-02-17T15:57:47.988Z,3.83
2023-02-17T16:00:22.420Z,2.83
2023-02-17T16:02:50.650Z,3.47
2023-02-17T16:05:22.050Z,3.80
2023-02-17T16:07:49.946Z,3.50
2023-02-17T16:10:21.245Z,3.57
2023-02-17T16:12:50.365Z,5.20
2023-02-17T16:15:20.301Z,3.97
2023-02-17T16:17:49.309Z,3.67
2023-02-17T16:20:20.567Z,3.30
2023-02-17T16:22:48.823Z,2.67
2023-02-17T16:25:18.809Z,3.70
2023-02-17T16:27:48.409Z,3.43
2023-02-17T16:30:22.024Z,3.70
2023-02-17T16:32:51.125Z,3.07
2023-02-17T16:35:23.434Z,2.97
2023-02-17T16:37:55.270Z,4.43
2023-02-17T16:40:26.096Z,3.47
2023-02-17T16:42:54.242Z,3.37
2023-02-17T16:45:23.742Z,3.23
2023-02-17T16:47:54.083Z,2.70
2023-02-17T16:50:26.724Z,2.80
2023-02-17T16:52:56.536Z,3.00
2023-02-17T16:55:27.453Z,2.80
2023-02-17T16:57:55.335Z,2.70
2023-02-17T17:00:26.291Z,3.37
2023-02-17T17:02:54.442Z,2.13
2023-02-17T17:05:24.360Z,1.90
2023-02-17T17:07:52.195Z,2.37
2023-02-17T17:10:22.684Z,2.77
2023-02-17T17:12:50.637Z,2.50
2023-02-17T17:15:20.930Z,2.00
2023-02-17T17:17:53.346Z,1.90
2023-02-17T17:20:27.893Z,2.00
2023-02-17T17:22:55.883Z,2.30
2023-02-17T17:25:23.779Z,2.40
2023-02-17T17:27:51.670Z,2.00
2023-02-17T17:30:21.595Z,2.23
2023-02-17T17:32:49.717Z,1.93
2023-02-17T17:35:18.347Z,2.50
2023-02-17T17:37:47.851Z,2.00
2023-02-17T17:40:20.484Z,1.90
2023-02-17T17:42:48.396Z,1.80
2023-02-17T17:45:16.395Z,1.90
2023-02-17T17:47:44.539Z,2.00
2023-02-17T17:50:17.158Z,2.10
2023-02-17T17:52:45.272Z,2.10
2023-02-17T17:55:14.822Z,2.00
2023-02-17T17:57:42.874Z,2.33
2023-02-17T18:00:13.078Z,2.50
2023-02-17T18:02:40.872Z,2.07
2023-02-17T18:05:09.335Z,2.07
2023-02-17T18:07:38.539Z,2.27
2023-02-17T18:10:10.309Z,2.50
2023-02-17T18:12:39.948Z,2.80
2023-02-17T18:15:08.787Z,2.70
2023-02-17T18:17:40.034Z,3.03
2023-02-17T18:20:10.826Z,2.53
2023-02-17T18:22:38.780Z,3.10
2023-02-17T18:25:07.266Z,2.80
2023-02-17T18:27:41.154Z,3.10
2023-02-17T18:30:10.692Z,3.47
2023-02-17T18:32:38.538Z,3.40
2023-02-17T18:35:06.871Z,2.60
2023-02-17T18:37:34.971Z,2.60
2023-02-17T18:40:03.760Z,2.90
2023-02-17T18:42:31.548Z,2.63
2023-02-17T18:45:00.846Z,2.50
2023-02-17T18:47:28.691Z,2.83
2023-02-17T18:49:56.497Z,2.33
2023-02-17T18:52:24.827Z,2.50
2023-02-17T18:54:52.678Z,2.10
2023-02-17T18:57:20.480Z,2.20
2023-02-17T18:59:49.210Z,2.63
2023-02-17T19:02:18.527Z,2.63
2023-02-17T19:04:46.411Z,1.90
2023-02-17T19:07:14.215Z,2.60
2023-02-17T19:09:43.212Z,2.20
2023-02-17T19:12:13.494Z,2.20
2023-02-17T19:14:41.816Z,2.60
2023-02-17T19:17:10.483Z,2.47
2023-02-17T19:19:40.209Z,2.70
2023-02-17T19:22:09.503Z,2.40
2023-02-17T19:24:37.657Z,2.90
2023-02-17T19:27:05.879Z,3.07
2023-02-17T19:29:33.711Z,2.67
2023-02-17T19:32:03.320Z,2.80
2023-02-17T19:34:32.098Z,2.80
2023-02-17T19:37:01.281Z,3.70
2023-02-17T19:39:29.112Z,2.90
2023-02-17T19:41:56.942Z,3.40
2023-02-17T19:44:24.758Z,2.60
2023-02-17T19:46:53.773Z,3.30
2023-02-17T19:49:21.638Z,3.80
2023-02-17T19:51:49.958Z,3.30
2023-02-17T19:54:19.087Z,3.30
2023-02-17T19:56:48.850Z,3.13
2023-02-17T19:59:16.760Z,3.40
2023-02-17T20:01:44.720Z,3.57
2023-02-17T20:04:12.614Z,3.10
2023-02-17T20:06:42.982Z,2.97
2023-02-17T20:09:12.493Z,3.17
2023-02-17T20:11:41.676Z,2.80
2023-02-17T20:14:10.941Z,3.23
2023-02-17T20:16:39.745Z,3.27
2023-02-17T20:19:08.037Z,3.00
2023-02-17T20:21:38.558Z,3.40
2023-02-17T20:24:07.997Z,3.70
2023-02-17T20:26:39.982Z,4.00
2023-02-17T20:29:09.927Z,3.97
2023-02-17T20:31:38.919Z,3.70
2023-02-17T20:34:09.217Z,3.87
2023-02-17T20:36:37.095Z,3.27
2023-02-17T20:39:05.238Z,4.03
2023-02-17T20:41:33.082Z,3.50
2023-02-17T20:44:02.922Z,3.70
2023-02-17T20:46:32.660Z,3.97
2023-02-17T20:49:00.487Z,3.90
2023-02-17T20:51:28.371Z,3.77
2023-02-17T20:53:56.168Z,3.23
2023-02-17T20:56:25.755Z,3.63
2023-02-17T20:58:54.013Z,3.67
2023-02-17T21:01:21.772Z,3.73
2023-02-17T21:03:50.922Z,3.70
2023-02-17T21:06:23.059Z,3.40
2023-02-17T21:08:52.537Z,3.30
2023-02-17T21:11:20.456Z,2.93
2023-02-17T21:13:48.890Z,3.80
2023-02-17T21:16:19.083Z,3.30
2023-02-17T21:18:47.246Z,3.63
2023-02-17T21:21:17.387Z,3.37
2023-02-17T21:23:45.811Z,3.63
2023-02-17T21:26:14.654Z,3.10
2023-02-17T21:28:42.586Z,3.50
2023-02-17T21:31:10.767Z,3.23
2023-02-17T21:33:41.973Z,3.47
2023-02-17T21:36:10.670Z,3.30
2023-02-17T21:38:40.263Z,3.73
2023-02-17T21:41:11.187Z,3.00
2023-02-17T21:43:56.860Z,3.37
2023-02-17T21:46:24.987Z,3.40
2023-02-17T21:48:53.571Z,2.50
2023-02-17T21:51:21.596Z,3.70
2023-02-17T21:53:50.795Z,3.70
2023-02-17T21:56:18.593Z,3.60
2023-02-17T21:58:47.111Z,3.90
2023-02-17T22:01:15.207Z,3.47
2023-02-17T22:03:43.109Z,3.17
2023-02-17T22:06:16.220Z,3.80
2023-02-17T22:08:44.021Z,3.23
2023-02-17T22:11:17.650Z,3.20
2023-02-17T22:13:47.507Z,2.93
2023-02-17T22:16:15.529Z,3.90
2023-02-17T22:18:43.333Z,3.20
2023-02-17T22:21:12.592Z,3.47
2023-02-17T22:23:41.022Z,3.37
2023-02-17T22:26:10.351Z,2.80
2023-02-17T22:28:39.554Z,3.90
2023-02-17T22:31:08.292Z,3.00
2023-02-17T22:33:36.073Z,3.40
2023-02-17T22:36:07.350Z,2.87
2023-02-17T22:38:35.930Z,3.50
2023-02-17T22:41:07.067Z,3.07
2023-02-17T22:43:37.465Z,3.53
2023-02-17T22:46:07.926Z,3.03
2023-02-17T22:48:38.102Z,3.40
2023-02-17T22:51:06.457Z,2.70
2023-02-17T22:53:35.421Z,2.80
2023-02-17T22:56:03.897Z,2.80
2023-02-17T22:58:31.848Z,2.90
2023-02-17T23:01:10.228Z,2.70
2023-02-17T23:03:38.928Z,2.33
2023-02-17T23:06:09.490Z,2.50
2023-02-17T23:08:37.446Z,2.40
2023-02-17T23:11:06.423Z,2.13
2023-02-17T23:13:35.841Z,2.30
2023-02-17T23:16:04.076Z,2.70
2023-02-17T23:18:34.317Z,2.30
2023-02-17T23:21:09.685Z,2.67
2023-02-17T23:23:37.537Z,2.70
2023-02-17T23:26:05.728Z,2.50
2023-02-17T23:28:34.043Z,2.73
2023-02-17T23:31:01.965Z,2.60
2023-02-17T23:33:29.781Z,2.50
2023-02-17T23:35:58.930Z,3.10
2023-02-17T23:38:26.737Z,2.60
2023-02-17T23:40:54.576Z,2.60
2023-02-17T23:43:22.605Z,2.47
2023-02-17T23:45:50.835Z,2.83
2023-02-17T23:48:18.641Z,2.30
2023-02-17T23:50:46.433Z,2.47
2023-02-17T23:53:15.762Z,2.20
2023-02-17T23:55:43.567Z,2.50
2023-02-17T23:58:11.431Z,2.73
